createdAt,value
2022-09-03T00:01:26.797Z,16.56
2022-09-03T00:04:25.782Z,17.11
2022-09-03T00:07:35.734Z,17.58
2022-09-03T00:10:19.261Z,17.92
2022-09-03T00:12:54.472Z,18.14
2022-09-03T00:15:27.043Z,18.30
2022-09-03T00:18:35.061Z,18.46
2022-09-03T00:21:21.253Z,18.57
2022-09-03T00:24:25.195Z,18.65
2022-09-03T00:27:21.499Z,18.77
2022-09-03T00:30:09.406Z,18.86
2022-09-03T00:32:53.896Z,18.88
2022-09-03T00:35:51.976Z,18.76
2022-09-03T00:38:37.821Z,18.16
2022-09-03T00:41:38.688Z,17.53
2022-09-03T00:45:39.644Z,16.88
2022-09-03T00:49:01.944Z,16.69
2022-09-03T00:51:51.347Z,17.04
2022-09-03T00:54:51.070Z,17.30
2022-09-03T00:57:56.071Z,17.45
2022-09-03T01:00:37.184Z,17.56
2022-09-03T01:03:26.452Z,17.59
2022-09-03T01:06:32.412Z,17.64
2022-09-03T01:09:19.568Z,17.64
2022-09-03T01:11:59.758Z,17.61
2022-09-03T01:15:01.305Z,17.47
2022-09-03T01:17:51.131Z,17.38
2022-09-03T01:20:29.114Z,17.24
2022-09-03T01:23:45.821Z,17.16
2022-09-03T01:26:33.772Z,17.10
2022-09-03T01:29:39.683Z,17.04
2022-09-03T01:32:48.088Z,16.92
2022-09-03T01:35:38.709Z,16.91
2022-09-03T01:38:44.786Z,16.90
2022-09-03T01:42:36.855Z,16.85
2022-09-03T01:45:29.506Z,16.75
2022-09-03T01:48:38.431Z,16.68
2022-09-03T01:51:25.629Z,16.67
2022-09-03T01:54:28.691Z,16.69
2022-09-03T01:57:56.394Z,16.67
2022-09-03T02:00:51.722Z,16.70
2022-09-03T02:03:36.448Z,16.64
2022-09-03T02:06:12.960Z,16.54
2022-09-03T02:08:47.716Z,16.49
2022-09-03T02:11:25.697Z,16.49
2022-09-03T02:14:37.844Z,16.57
2022-09-03T02:17:36.096Z,16.63
2022-09-03T02:20:34.627Z,16.66
2022-09-03T02:23:38.570Z,16.68
2022-09-03T02:26:55.995Z,16.71
2022-09-03T02:30:22.585Z,16.73
2022-09-03T02:33:04.399Z,16.72
2022-09-03T02:35:43.332Z,16.68
2022-09-03T02:38:28.687Z,16.63
2022-09-03T02:41:40.476Z,16.65
2022-09-03T02:44:41.284Z,16.65
2022-09-03T02:47:32.159Z,16.68
2022-09-03T02:50:13.303Z,16.56
2022-09-03T02:53:05.748Z,16.44
2022-09-03T02:56:01.185Z,16.33
2022-09-03T02:58:35.423Z,16.21
2022-09-03T03:01:28.196Z,16.13
2022-09-03T03:04:09.889Z,16.10
2022-09-03T03:06:52.788Z,16.07
2022-09-03T03:09:38.329Z,16.11
2022-09-03T03:12:26.671Z,16.25
2022-09-03T03:15:07.790Z,16.32
2022-09-03T03:17:47.841Z,16.34
2022-09-03T03:20:50.527Z,16.33
2022-09-03T03:23:37.752Z,16.32
2022-09-03T03:26:32.630Z,16.29
2022-09-03T03:29:22.942Z,16.29
2022-09-03T03:32:35.335Z,16.37
2022-09-03T03:35:24.192Z,16.36
2022-09-03T03:38:11.777Z,16.35
2022-09-03T03:40:56.496Z,16.31
2022-09-03T03:43:33.462Z,16.34
2022-09-03T03:46:24.228Z,16.35
2022-09-03T03:49:15.944Z,16.41
2022-09-03T03:52:08.108Z,16.49
2022-09-03T03:54:52.188Z,16.53
2022-09-03T03:57:48.217Z,16.57
2022-09-03T04:00:49.906Z,16.61
2022-09-03T04:04:02.191Z,16.64
2022-09-03T04:06:45.653Z,16.63
2022-09-03T04:09:33.372Z,16.63
2022-09-03T04:12:10.358Z,16.61
2022-09-03T04:14:43.236Z,16.58
2022-09-03T04:17:16.470Z,16.56
2022-09-03T04:19:50.949Z,16.53
2022-09-03T04:22:51.959Z,16.53
2022-09-03T04:25:36.466Z,16.49
2022-09-03T04:28:45.990Z,16.46
2022-09-03T04:31:27.608Z,16.40
2022-09-03T04:34:15.624Z,16.36
2022-09-03T04:37:06.399Z,16.38
2022-09-03T04:40:01.031Z,16.38
2022-09-03T04:42:57.634Z,16.37
2022-09-03T04:46:06.617Z,16.31
2022-09-03T04:48:41.700Z,16.28
2022-09-03T04:51:16.431Z,16.36
2022-09-03T04:54:19.006Z,16.38
2022-09-03T04:56:56.201Z,16.35
2022-09-03T04:59:46.615Z,16.32
2022-09-03T05:02:48.813Z,16.26
2022-09-03T05:06:03.907Z,16.21
2022-09-03T05:09:24.532Z,16.19
2022-09-03T05:11:54.858Z,16.20
2022-09-03T05:15:05.750Z,16.22
2022-09-03T05:17:57.760Z,16.19
2022-09-03T05:20:36.499Z,16.14
2022-09-03T05:23:13.555Z,16.09
2022-09-03T05:25:59.531Z,16.03
2022-09-03T05:28:38.104Z,15.99
2022-09-03T05:31:22.374Z,15.96
2022-09-03T05:34:26.239Z,15.95
2022-09-03T05:37:06.931Z,15.95
2022-09-03T05:39:48.210Z,15.99
2022-09-03T05:42:40.107Z,16.00
2022-09-03T05:45:39.116Z,16.00
2022-09-03T05:48:37.833Z,15.98
2022-09-03T05:51:29.225Z,16.03
2022-09-03T05:54:32.317Z,16.19
2022-09-03T05:57:13.392Z,16.47
2022-09-03T06:00:07.795Z,16.73
2022-09-03T06:02:51.007Z,16.87
2022-09-03T06:05:41.299Z,16.93
2022-09-03T06:09:09.480Z,16.93
2022-09-03T06:12:10.085Z,17.06
2022-09-03T06:15:34.069Z,17.17
2022-09-03T06:18:23.122Z,17.23
2022-09-03T06:21:07.689Z,17.37
2022-09-03T06:23:36.916Z,17.60
2022-09-03T06:26:09.341Z,17.75
2022-09-03T06:28:43.548Z,17.77
2022-09-03T06:31:14.899Z,17.39
2022-09-03T06:33:44.205Z,16.99
2022-09-03T06:36:15.819Z,16.71
2022-09-03T06:38:55.354Z,16.51
2022-09-03T06:41:35.907Z,16.45
2022-09-03T06:44:20.705Z,16.92
2022-09-03T06:47:35.684Z,17.38
2022-09-03T06:50:08.294Z,17.62
2022-09-03T06:53:00.355Z,17.82
2022-09-03T06:55:55.615Z,17.99
2022-09-03T06:58:43.815Z,18.07
2022-09-03T07:01:33.861Z,17.69
2022-09-03T07:04:21.350Z,17.28
2022-09-03T07:06:53.486Z,16.97
2022-09-03T07:09:25.424Z,16.76
2022-09-03T07:11:59.733Z,16.68
2022-09-03T07:14:34.013Z,16.99
2022-09-03T07:17:25.741Z,17.30
2022-09-03T07:19:59.924Z,17.54
2022-09-03T07:22:31.814Z,17.72
2022-09-03T07:25:03.980Z,17.93
2022-09-03T07:27:34.803Z,18.07
2022-09-03T07:30:03.986Z,18.19
2022-09-03T07:32:34.515Z,18.33
2022-09-03T07:35:03.435Z,18.34
2022-09-03T07:37:31.989Z,18.04
2022-09-03T07:40:02.118Z,17.71
2022-09-03T07:42:36.329Z,17.42
2022-09-03T07:45:12.888Z,17.23
2022-09-03T07:47:51.443Z,17.08
2022-09-03T07:50:20.572Z,16.99
2022-09-03T07:52:57.490Z,16.95
2022-09-03T07:55:29.357Z,16.95
2022-09-03T07:58:07.603Z,17.00
2022-09-03T08:00:40.109Z,17.08
2022-09-03T08:03:11.814Z,17.17
2022-09-03T08:05:42.857Z,17.27
2022-09-03T08:08:15.513Z,17.35
2022-09-03T08:10:45.256Z,17.43
2022-09-03T08:13:14.031Z,17.51
2022-09-03T08:15:43.247Z,17.58
2022-09-03T08:18:16.002Z,17.66
2022-09-03T08:21:10.594Z,17.75
2022-09-03T08:23:41.169Z,17.82
2022-09-03T08:26:10.511Z,17.90
2022-09-03T08:28:39.525Z,17.98
2022-09-03T08:31:13.114Z,18.07
2022-09-03T08:33:44.325Z,18.17
2022-09-03T08:36:17.589Z,18.27
2022-09-03T08:38:47.063Z,18.39
2022-09-03T08:41:44.636Z,18.50
2022-09-03T08:44:49.606Z,18.64
2022-09-03T08:47:28.834Z,18.81
2022-09-03T08:50:18.383Z,18.97
2022-09-03T08:52:50.721Z,19.13
2022-09-03T08:55:25.966Z,19.24
2022-09-03T08:58:14.825Z,19.34
2022-09-03T09:01:08.124Z,19.46
2022-09-03T09:04:14.154Z,19.56
2022-09-03T09:07:09.765Z,19.64
2022-09-03T09:09:51.147Z,19.69
2022-09-03T09:12:22.394Z,19.76
2022-09-03T09:15:16.224Z,19.82
2022-09-03T09:18:18.166Z,19.87
2022-09-03T09:21:21.931Z,19.95
2022-09-03T09:24:02.846Z,20.06
2022-09-03T09:26:32.115Z,20.10
2022-09-03T09:29:10.642Z,20.14
2022-09-03T09:31:42.239Z,20.19
2022-09-03T09:34:21.825Z,20.22
2022-09-03T09:36:56.543Z,20.24
2022-09-03T09:39:28.411Z,20.28
2022-09-03T09:42:12.820Z,20.31
2022-09-03T09:44:44.923Z,20.31
2022-09-03T09:47:23.143Z,20.28
2022-09-03T09:49:53.470Z,20.25
2022-09-03T09:52:26.147Z,20.23
2022-09-03T09:55:15.137Z,20.27
2022-09-03T09:57:45.022Z,20.28
2022-09-03T10:00:17.134Z,20.22
2022-09-03T10:02:51.960Z,20.29
2022-09-03T10:05:37.888Z,20.42
2022-09-03T10:08:22.185Z,20.53
2022-09-03T10:10:52.178Z,20.66
2022-09-03T10:13:42.026Z,20.81
2022-09-03T10:16:35.103Z,21.05
2022-09-03T10:19:19.742Z,21.32
2022-09-03T10:21:59.740Z,21.55
2022-09-03T10:25:01.294Z,21.80
2022-09-03T10:27:30.240Z,22.10
2022-09-03T10:30:00.820Z,22.32
2022-09-03T10:32:58.532Z,22.49
2022-09-03T10:35:46.547Z,22.76
2022-09-03T10:38:30.269Z,23.05
2022-09-03T10:41:24.863Z,23.23
2022-09-03T10:44:26.194Z,23.32
2022-09-03T10:47:19.997Z,23.40
2022-09-03T10:49:54.606Z,23.52
2022-09-03T10:52:33.844Z,23.54
2022-09-03T10:55:19.733Z,23.56
2022-09-03T10:58:08.044Z,23.58
2022-09-03T11:00:41.743Z,23.53
2022-09-03T11:03:27.856Z,23.44
2022-09-03T11:05:56.543Z,23.45
2022-09-03T11:08:36.595Z,23.58
2022-09-03T11:11:27.999Z,23.71
2022-09-03T11:14:09.397Z,23.61
2022-09-03T11:16:51.090Z,23.62
2022-09-03T11:19:27.811Z,23.88
2022-09-03T11:21:57.173Z,24.23
2022-09-03T11:24:35.372Z,24.60
2022-09-03T11:27:38.605Z,24.88
2022-09-03T11:30:09.738Z,24.91
2022-09-03T11:32:52.954Z,24.91
2022-09-03T11:35:38.623Z,25.12
2022-09-03T11:38:21.642Z,25.29
2022-09-03T11:41:04.784Z,25.32
2022-09-03T11:43:37.247Z,25.56
2022-09-03T11:46:23.617Z,25.90
2022-09-03T11:48:56.630Z,26.30
2022-09-03T11:51:33.143Z,26.75
2022-09-03T11:54:14.584Z,27.27
2022-09-03T11:56:43.372Z,27.67
2022-09-03T11:59:27.309Z,27.82
2022-09-03T12:02:28.190Z,27.83
2022-09-03T12:05:10.034Z,28.07
2022-09-03T12:08:24.741Z,28.58
2022-09-03T12:10:56.025Z,29.42
2022-09-03T12:13:24.812Z,30.02
2022-09-03T12:16:12.098Z,30.58
2022-09-03T12:18:45.875Z,31.15
2022-09-03T12:21:18.147Z,31.58
2022-09-03T12:23:58.161Z,31.70
2022-09-03T12:26:27.841Z,31.83
2022-09-03T12:28:59.257Z,32.07
2022-09-03T12:31:44.634Z,32.22
2022-09-03T12:34:16.498Z,32.10
2022-09-03T12:36:48.153Z,31.99
2022-09-03T12:40:04.756Z,31.94
2022-09-03T12:42:17.264Z,32.04
2022-09-03T12:44:46.270Z,32.18
2022-09-03T12:47:38.371Z,32.34
2022-09-03T12:50:21.117Z,32.52
2022-09-03T12:52:59.119Z,32.74
2022-09-03T12:55:55.252Z,32.88
2022-09-03T12:58:32.184Z,32.83
2022-09-03T13:01:22.046Z,32.96
2022-09-03T13:03:58.134Z,33.06
2022-09-03T13:06:33.456Z,33.10
2022-09-03T13:09:06.838Z,33.10
2022-09-03T13:11:39.391Z,33.10
2022-09-03T13:14:13.180Z,33.17
2022-09-03T13:16:50.396Z,33.31
2022-09-03T13:19:37.664Z,33.43
2022-09-03T13:22:15.129Z,33.49
2022-09-03T13:25:21.755Z,33.57
2022-09-03T13:28:08.015Z,33.71
2022-09-03T13:31:15.721Z,33.77
2022-09-03T13:33:50.125Z,33.65
2022-09-03T13:36:26.194Z,33.51
2022-09-03T13:39:29.076Z,33.46
2022-09-03T13:42:10.124Z,33.51
2022-09-03T13:45:06.916Z,33.64
2022-09-03T13:48:05.834Z,33.74
2022-09-03T13:51:04.097Z,33.81
2022-09-03T13:53:48.975Z,33.79
2022-09-03T13:56:43.268Z,33.73
2022-09-03T13:59:41.812Z,33.62
2022-09-03T14:02:28.803Z,33.48
2022-09-03T14:05:10.530Z,33.33
2022-09-03T14:08:10.202Z,33.21
2022-09-03T14:11:17.226Z,33.10
2022-09-03T14:13:55.282Z,32.96
2022-09-03T14:16:45.101Z,32.69
2022-09-03T14:19:35.230Z,32.16
2022-09-03T14:22:46.271Z,31.47
2022-09-03T14:25:30.867Z,30.75
2022-09-03T14:28:21.230Z,30.20
2022-09-03T14:31:44.679Z,30.00
2022-09-03T14:34:35.091Z,29.96
2022-09-03T14:37:26.096Z,29.81
2022-09-03T14:39:56.886Z,29.32
2022-09-03T14:42:32.724Z,28.74
2022-09-03T14:45:29.096Z,28.46
2022-09-03T14:48:31.474Z,28.32
2022-09-03T14:51:36.296Z,28.17
2022-09-03T14:54:19.287Z,28.16
2022-09-03T14:57:17.507Z,27.88
2022-09-03T15:00:19.652Z,27.37
2022-09-03T15:02:51.802Z,26.87
2022-09-03T15:05:42.652Z,26.44
2022-09-03T15:08:34.129Z,25.95
2022-09-03T15:11:10.884Z,25.46
2022-09-03T15:13:48.910Z,25.09
2022-09-03T15:16:23.215Z,24.78
2022-09-03T15:19:18.713Z,24.40
2022-09-03T15:22:09.866Z,24.08
2022-09-03T15:25:01.040Z,24.00
2022-09-03T15:27:42.143Z,24.00
2022-09-03T15:30:19.322Z,23.88
2022-09-03T15:33:26.051Z,23.88
2022-09-03T15:36:27.623Z,23.89
2022-09-03T15:39:31.235Z,23.82
2022-09-03T15:42:09.787Z,23.72
2022-09-03T15:45:06.064Z,23.65
2022-09-03T15:47:54.532Z,23.60
2022-09-03T15:50:55.797Z,23.64
2022-09-03T15:53:45.086Z,23.70
2022-09-03T15:56:23.682Z,23.80
2022-09-03T15:59:01.830Z,23.95
2022-09-03T16:01:43.527Z,23.96
2022-09-03T16:04:26.115Z,23.91
2022-09-03T16:07:04.118Z,23.83
2022-09-03T16:10:23.843Z,23.73
2022-09-03T16:13:28.224Z,23.54
2022-09-03T16:16:06.791Z,23.41
2022-09-03T16:18:55.907Z,23.39
2022-09-03T16:21:54.896Z,23.45
2022-09-03T16:24:46.833Z,23.58
2022-09-03T16:27:57.403Z,23.78
2022-09-03T16:30:48.309Z,23.82
2022-09-03T16:33:28.974Z,23.73
2022-09-03T16:36:26.459Z,23.69
